createdAt,value
2023-05-19T00:00:19.669Z,99831.31
2023-05-19T00:03:09.557Z,99821.41
2023-05-19T00:05:45.633Z,99833.97
2023-05-19T00:08:18.046Z,99824.94
2023-05-19T00:10:47.353Z,99832.34
2023-05-19T00:13:16.542Z,99829.81
2023-05-19T00:15:46.113Z,99813.84
2023-05-19T00:18:16.609Z,99821.09
2023-05-19T00:20:45.635Z,99816.53
2023-05-19T00:23:15.674Z,99817.41
2023-05-19T00:25:44.970Z,99813.91
2023-05-19T00:28:13.478Z,99814.97
2023-05-19T00:30:43.762Z,99811.25
2023-05-19T00:33:12.583Z,99820.78
2023-05-19T00:35:41.802Z,99818.81
2023-05-19T00:38:10.492Z,99819.44
2023-05-19T00:40:41.369Z,99831.03
2023-05-19T00:43:10.031Z,99819.88
2023-05-19T00:45:39.026Z,99823.97
2023-05-19T00:48:07.790Z,99816.78
2023-05-19T00:50:36.874Z,99816.88
2023-05-19T00:53:05.594Z,99809.31
2023-05-19T00:55:36.639Z,99798.53
2023-05-19T00:58:07.472Z,99801.94
2023-05-19T01:00:37.528Z,99815.56
2023-05-19T01:03:11.478Z,99814.47
2023-05-19T01:05:44.863Z,99814.94
2023-05-19T01:08:13.746Z,99809.38
2023-05-19T01:10:43.056Z,99812.97
2023-05-19T01:13:13.254Z,99811.53
2023-05-19T01:16:08.999Z,99814.81
2023-05-19T01:18:46.821Z,99813.94
2023-05-19T01:21:48.688Z,99816.66
2023-05-19T01:24:46.915Z,99813.31
2023-05-19T01:27:44.135Z,99818.06
2023-05-19T01:30:30.102Z,99810.09
2023-05-19T01:33:02.510Z,99811.50
2023-05-19T01:35:33.053Z,99816.72
2023-05-19T01:38:03.316Z,99812.53
2023-05-19T01:40:33.701Z,99800.06
2023-05-19T01:43:03.579Z,99801.00
2023-05-19T01:45:35.749Z,99797.28
2023-05-19T01:48:09.254Z,99799.47
2023-05-19T01:50:41.373Z,99792.72
2023-05-19T01:53:10.690Z,99804.72
2023-05-19T01:55:45.891Z,99799.34
2023-05-19T01:58:21.887Z,99797.53
2023-05-19T02:00:59.422Z,99790.88
2023-05-19T02:03:46.226Z,99798.38
2023-05-19T02:06:28.892Z,99796.72
2023-05-19T02:09:02.159Z,99795.25
2023-05-19T02:11:38.111Z,99796.34
2023-05-19T02:14:15.002Z,99790.19
2023-05-19T02:16:48.415Z,99782.16
2023-05-19T02:19:25.812Z,99788.09
2023-05-19T02:21:56.788Z,99794.03
2023-05-19T02:24:26.130Z,99781.44
2023-05-19T02:26:55.453Z,99783.72
2023-05-19T02:29:24.497Z,99794.19
2023-05-19T02:31:54.621Z,99781.63
2023-05-19T02:34:23.630Z,99775.97
2023-05-19T02:36:52.311Z,99772.75
2023-05-19T02:39:21.160Z,99761.44
2023-05-19T02:41:50.053Z,99764.75
2023-05-19T02:44:19.110Z,99774.06
2023-05-19T02:46:47.873Z,99769.97
2023-05-19T02:49:18.296Z,99770.34
2023-05-19T02:51:46.986Z,99767.00
2023-05-19T02:54:16.090Z,99761.56
2023-05-19T02:56:44.622Z,99760.59
2023-05-19T02:59:13.761Z,99769.50
2023-05-19T03:01:42.434Z,99774.75
2023-05-19T03:04:11.612Z,99785.41
2023-05-19T03:06:42.296Z,99785.19
2023-05-19T03:09:11.613Z,99798.63
2023-05-19T03:11:40.301Z,99798.88
2023-05-19T03:14:10.078Z,99799.19
2023-05-19T03:16:41.344Z,99798.16
2023-05-19T03:19:10.859Z,99796.91
2023-05-19T03:21:41.781Z,99807.28
2023-05-19T03:24:10.738Z,99803.06
2023-05-19T03:26:39.516Z,99809.81
2023-05-19T03:29:08.587Z,99800.78
2023-05-19T03:31:38.897Z,99799.28
2023-05-19T03:34:07.855Z,99803.72
2023-05-19T03:36:39.902Z,99804.03
2023-05-19T03:39:15.373Z,99797.34
2023-05-19T03:41:44.356Z,99807.00
2023-05-19T03:44:13.226Z,99803.94
2023-05-19T03:46:42.419Z,99807.31
2023-05-19T03:49:30.641Z,99811.19
2023-05-19T03:52:31.215Z,99816.66
2023-05-19T03:55:16.485Z,99810.84
2023-05-19T03:57:45.524Z,99809.25
2023-05-19T04:00:15.330Z,99809.31
2023-05-19T04:02:43.996Z,99812.59
2023-05-19T04:05:12.959Z,99809.31
2023-05-19T04:07:41.768Z,99807.25
2023-05-19T04:10:11.412Z,99817.03
2023-05-19T04:12:41.393Z,99807.34
2023-05-19T04:15:12.521Z,99805.34
2023-05-19T04:17:42.369Z,99787.16
2023-05-19T04:20:12.953Z,99800.81
2023-05-19T04:22:41.569Z,99802.06
2023-05-19T04:25:12.004Z,99808.47
2023-05-19T04:27:43.022Z,99817.50
2023-05-19T04:30:18.539Z,99833.31
2023-05-19T04:32:47.573Z,99828.84
2023-05-19T04:35:17.684Z,99836.41
2023-05-19T04:37:46.884Z,99841.88
2023-05-19T04:40:17.517Z,99838.91
2023-05-19T04:42:49.903Z,99849.78
2023-05-19T04:45:19.805Z,99857.41
2023-05-19T04:47:52.826Z,99853.81
2023-05-19T04:50:21.842Z,99842.59
2023-05-19T04:52:50.584Z,99844.53
2023-05-19T04:55:19.844Z,99837.53
2023-05-19T04:57:51.661Z,99841.03
2023-05-19T05:00:22.982Z,99843.34
2023-05-19T05:02:59.761Z,99849.50
2023-05-19T05:05:32.087Z,99855.47
2023-05-19T05:08:01.228Z,99851.34
2023-05-19T05:10:34.388Z,99856.69
2023-05-19T05:13:05.400Z,99849.72
2023-05-19T05:15:35.682Z,99849.34
2023-05-19T05:18:05.860Z,99850.34
2023-05-19T05:20:35.751Z,99842.38
2023-05-19T05:23:04.962Z,99859.69
2023-05-19T05:25:36.230Z,99860.94
2023-05-19T05:28:06.827Z,99859.88
2023-05-19T05:30:38.441Z,99860.19
2023-05-19T05:33:09.614Z,99859.53
2023-05-19T05:35:40.931Z,99868.19
2023-05-19T05:38:12.214Z,99861.78
2023-05-19T05:40:42.492Z,99866.94
2023-05-19T05:43:13.190Z,99870.41
2023-05-19T05:45:48.659Z,99862.59
2023-05-19T05:48:18.030Z,99878.50
2023-05-19T05:50:47.397Z,99869.34
2023-05-19T05:53:21.906Z,99869.44
2023-05-19T05:55:55.020Z,99867.69
2023-05-19T05:58:30.049Z,99862.22
2023-05-19T06:00:59.774Z,99861.38
2023-05-19T06:03:28.763Z,99874.28
2023-05-19T06:06:03.338Z,99867.88
2023-05-19T06:08:32.057Z,99871.53
2023-05-19T06:11:01.433Z,99876.63
2023-05-19T06:13:33.133Z,99890.44
2023-05-19T06:16:02.867Z,99890.81
2023-05-19T06:18:34.914Z,99895.03
2023-05-19T06:21:04.441Z,99885.41
2023-05-19T06:23:33.205Z,99889.84
2023-05-19T06:26:02.475Z,99892.50
2023-05-19T06:28:33.822Z,99892.38
2023-05-19T06:31:02.887Z,99897.34
2023-05-19T06:33:51.954Z,99888.78
2023-05-19T06:36:22.903Z,99893.44
2023-05-19T06:38:52.999Z,99893.91
2023-05-19T06:41:22.725Z,99880.84
2023-05-19T06:43:54.697Z,99892.31
2023-05-19T06:46:24.223Z,99904.72
2023-05-19T06:48:52.826Z,99906.34
2023-05-19T06:51:25.092Z,99906.53
2023-05-19T06:53:57.647Z,99907.03
2023-05-19T06:56:26.925Z,99915.78
2023-05-19T06:58:56.935Z,99916.41
2023-05-19T07:01:32.417Z,99919.28
2023-05-19T07:04:01.985Z,99914.97
2023-05-19T07:06:32.062Z,99917.47
2023-05-19T07:09:00.723Z,99918.69
2023-05-19T07:11:30.846Z,99906.75
2023-05-19T07:14:01.371Z,99905.41
2023-05-19T07:16:33.547Z,99904.72
2023-05-19T07:19:02.316Z,99892.53
2023-05-19T07:21:31.643Z,99889.50
2023-05-19T07:24:00.387Z,99888.53
2023-05-19T07:26:30.716Z,99885.63
2023-05-19T07:28:59.491Z,99890.94
2023-05-19T07:31:29.991Z,99904.47
2023-05-19T07:33:58.814Z,99906.22
2023-05-19T07:36:28.087Z,99916.56
2023-05-19T07:38:56.875Z,99913.09
2023-05-19T07:41:26.275Z,99920.75
2023-05-19T07:43:55.006Z,99921.13
2023-05-19T07:46:24.086Z,99907.25
2023-05-19T07:48:54.149Z,99910.41
2023-05-19T07:51:23.075Z,99902.47
2023-05-19T07:53:51.838Z,99895.84
2023-05-19T07:56:21.330Z,99908.75
2023-05-19T07:58:50.147Z,99908.88
2023-05-19T08:01:19.010Z,99913.66
2023-05-19T08:03:47.727Z,99918.31
2023-05-19T08:06:18.064Z,99916.84
2023-05-19T08:08:47.369Z,99920.09
2023-05-19T08:11:16.574Z,99923.56
2023-05-19T08:13:47.669Z,99917.06
2023-05-19T08:16:16.833Z,99918.69
2023-05-19T08:18:45.610Z,99922.16
2023-05-19T08:21:14.640Z,99916.19
2023-05-19T08:23:44.605Z,99910.31
2023-05-19T08:26:13.713Z,99912.81
2023-05-19T08:28:42.226Z,99902.47
2023-05-19T08:31:11.344Z,99906.66
2023-05-19T08:33:40.261Z,99915.00
2023-05-19T08:36:09.320Z,99909.88
2023-05-19T08:38:38.069Z,99902.56
2023-05-19T08:41:08.545Z,99893.03
2023-05-19T08:43:37.227Z,99897.03
2023-05-19T08:46:08.326Z,99897.94
2023-05-19T08:48:40.528Z,99901.06
2023-05-19T08:51:21.886Z,99889.34
2023-05-19T08:53:55.297Z,99894.56
2023-05-19T08:56:26.935Z,99892.09
2023-05-19T08:58:59.835Z,99890.34
2023-05-19T09:01:30.404Z,99894.47
2023-05-19T09:03:59.743Z,99893.81
2023-05-19T09:06:32.415Z,99899.06
2023-05-19T09:09:01.107Z,99902.13
2023-05-19T09:11:31.399Z,99899.00
2023-05-19T09:14:00.176Z,99904.09
2023-05-19T09:16:30.447Z,99895.13
2023-05-19T09:19:01.183Z,99889.94
2023-05-19T09:21:33.973Z,99892.59
2023-05-19T09:24:06.820Z,99876.00
2023-05-19T09:26:42.264Z,99876.34
2023-05-19T09:29:15.016Z,99879.97
2023-05-19T09:31:50.644Z,99874.78
2023-05-19T09:34:19.563Z,99878.50
2023-05-19T09:36:50.845Z,99884.69
2023-05-19T09:39:21.103Z,99897.19
2023-05-19T09:44:29.713Z,99881.97
2023-05-19T09:46:59.917Z,99876.44
2023-05-19T09:49:31.416Z,99881.59
2023-05-19T09:52:04.422Z,99894.19
2023-05-19T09:54:35.405Z,99880.84
2023-05-19T09:57:08.567Z,99884.25
2023-05-19T09:59:39.029Z,99882.16
2023-05-19T10:02:16.490Z,99885.44
2023-05-19T10:04:47.687Z,99875.34
2023-05-19T10:07:17.791Z,99881.13
2023-05-19T10:09:47.293Z,99883.44
2023-05-19T10:12:19.252Z,99881.19
2023-05-19T10:14:49.900Z,99871.78
2023-05-19T10:17:19.039Z,99877.75
2023-05-19T10:19:51.728Z,99862.53
2023-05-19T10:22:20.609Z,99868.78
2023-05-19T10:24:49.451Z,99870.50
2023-05-19T10:27:20.451Z,99871.50
2023-05-19T10:29:52.989Z,99870.28
2023-05-19T10:32:26.068Z,99868.94
2023-05-19T10:35:25.682Z,99866.78
2023-05-19T10:38:05.702Z,99865.88
2023-05-19T10:40:38.109Z,99875.88
2023-05-19T10:43:22.453Z,99874.44
2023-05-19T10:45:54.409Z,99884.06
2023-05-19T10:48:23.634Z,99878.69
2023-05-19T10:50:55.200Z,99881.53
2023-05-19T10:53:32.462Z,99868.94
2023-05-19T10:56:04.359Z,99863.81
2023-05-19T10:58:52.185Z,99866.25
2023-05-19T11:01:22.325Z,99868.78
2023-05-19T11:03:53.901Z,99864.19
2023-05-19T11:06:28.309Z,99857.34
2023-05-19T11:09:02.016Z,99861.31
2023-05-19T11:11:46.897Z,99853.78
2023-05-19T11:14:20.058Z,99858.22
2023-05-19T11:16:49.816Z,99852.00
2023-05-19T11:19:21.084Z,99846.03
2023-05-19T11:21:52.517Z,99852.31
2023-05-19T11:24:41.884Z,99849.94
2023-05-19T11:27:21.185Z,99840.22
2023-05-19T11:29:52.405Z,99838.94
2023-05-19T11:32:22.736Z,99824.41
2023-05-19T11:34:52.487Z,99824.47
2023-05-19T11:37:21.314Z,99827.56
2023-05-19T11:39:50.987Z,99821.00
2023-05-19T11:42:20.202Z,99817.38
2023-05-19T11:44:49.125Z,99813.19
2023-05-19T11:47:19.252Z,99810.81
2023-05-19T11:49:49.985Z,99807.41
2023-05-19T11:52:18.904Z,99807.38
2023-05-19T11:54:50.134Z,99803.25
2023-05-19T11:57:18.983Z,99801.22
2023-05-19T11:59:49.844Z,99796.69
2023-05-19T12:02:21.491Z,99797.47
2023-05-19T12:04:50.723Z,99792.53
2023-05-19T12:07:22.919Z,99787.16
2023-05-19T12:09:52.891Z,99776.59
2023-05-19T12:12:22.636Z,99777.34
2023-05-19T12:14:53.093Z,99775.09
2023-05-19T12:17:24.214Z,99772.63
2023-05-19T12:19:53.628Z,99777.06
2023-05-19T12:22:22.426Z,99766.25
2023-05-19T12:24:52.836Z,99762.06
2023-05-19T12:27:24.282Z,99756.63
2023-05-19T12:29:54.945Z,99753.84
2023-05-19T12:32:26.601Z,99749.56
2023-05-19T12:34:57.489Z,99746.19
2023-05-19T12:37:30.120Z,99743.56
2023-05-19T12:39:59.274Z,99740.72
2023-05-19T12:42:31.514Z,99743.69
2023-05-19T12:45:03.078Z,99741.38
2023-05-19T12:47:36.618Z,99745.56
2023-05-19T12:50:08.083Z,99741.16
2023-05-19T12:52:43.478Z,99743.66
2023-05-19T12:55:14.173Z,99750.84
2023-05-19T12:57:45.307Z,99745.66
2023-05-19T13:00:17.601Z,99737.56
2023-05-19T13:03:05.716Z,99732.13
2023-05-19T13:05:36.814Z,99728.00
2023-05-19T13:08:08.082Z,99725.22
2023-05-19T13:10:38.458Z,99738.00
2023-05-19T13:13:08.333Z,99731.53
2023-05-19T13:15:38.905Z,99721.88
2023-05-19T13:18:10.395Z,99718.59
2023-05-19T13:20:40.798Z,99720.06
2023-05-19T13:23:11.811Z,99729.84
2023-05-19T13:25:41.237Z,99732.75
2023-05-19T13:28:11.000Z,99733.16
2023-05-19T13:30:41.599Z,99729.88
2023-05-19T13:33:12.032Z,99724.97
2023-05-19T13:35:41.205Z,99728.78
2023-05-19T13:38:11.263Z,99720.69
2023-05-19T13:40:41.072Z,99727.56
2023-05-19T13:43:09.913Z,99722.06
2023-05-19T13:45:39.270Z,99725.53
2023-05-19T13:48:08.616Z,99721.34
2023-05-19T13:50:39.174Z,99725.41
2023-05-19T13:53:08.342Z,99723.38
2023-05-19T13:55:37.562Z,99726.34
2023-05-19T13:58:06.233Z,99724.63
2023-05-19T14:00:36.279Z,99723.19
2023-05-19T14:03:05.248Z,99732.47
2023-05-19T14:05:34.638Z,99726.66
2023-05-19T14:08:05.580Z,99728.06
2023-05-19T14:10:34.819Z,99731.06
2023-05-19T14:13:30.243Z,99734.25
2023-05-19T14:15:53.312Z,99727.31
2023-05-19T14:18:22.036Z,99722.66
2023-05-19T14:20:51.146Z,99721.19
2023-05-19T14:23:21.707Z,99726.19
2023-05-19T14:25:50.693Z,99723.28
2023-05-19T14:28:19.399Z,99721.72
2023-05-19T14:30:48.575Z,99718.03
2023-05-19T14:33:17.574Z,99727.41
2023-05-19T14:35:46.703Z,99733.56
2023-05-19T14:38:15.460Z,99728.53
2023-05-19T14:40:45.894Z,99729.41
2023-05-19T14:43:14.479Z,99727.44
2023-05-19T14:45:43.366Z,99734.19
2023-05-19T14:48:12.481Z,99735.81
2023-05-19T14:50:41.591Z,99735.38
2023-05-19T14:53:10.539Z,99725.53
2023-05-19T14:55:39.488Z,99731.34
2023-05-19T14:58:23.585Z,99725.44
2023-05-19T15:00:58.244Z,99721.53
2023-05-19T15:03:27.105Z,99723.28
2023-05-19T15:05:56.104Z,99728.22
2023-05-19T15:08:24.782Z,99733.34
2023-05-19T15:10:53.694Z,99728.50
2023-05-19T15:13:23.694Z,99738.22
2023-05-19T15:16:08.308Z,99732.13
2023-05-19T15:18:44.352Z,99728.31
2023-05-19T15:21:13.410Z,99736.44
2023-05-19T15:23:42.423Z,99741.06
2023-05-19T15:26:11.380Z,99736.97
2023-05-19T15:28:41.582Z,99734.94
2023-05-19T15:31:10.663Z,99730.19
2023-05-19T15:33:39.286Z,99732.22
2023-05-19T15:36:08.187Z,99740.94
2023-05-19T15:38:37.724Z,99735.72
2023-05-19T15:41:08.961Z,99734.28
2023-05-19T15:43:37.612Z,99724.97
2023-05-19T15:46:08.582Z,99721.22
2023-05-19T15:48:37.649Z,99720.03
2023-05-19T15:51:06.947Z,99718.75
2023-05-19T15:53:35.679Z,99717.56
2023-05-19T15:56:05.095Z,99720.22
2023-05-19T15:58:33.907Z,99725.91
2023-05-19T16:01:02.992Z,99724.72
2023-05-19T16:03:33.118Z,99727.38
2023-05-19T16:06:02.402Z,99716.19
2023-05-19T16:08:31.432Z,99720.81
2023-05-19T16:11:00.518Z,99715.16
2023-05-19T16:13:30.456Z,99716.00
2023-05-19T16:15:59.346Z,99710.09
2023-05-19T16:18:29.235Z,99708.59
2023-05-19T16:20:59.570Z,99706.59
2023-05-19T16:23:28.254Z,99704.34
2023-05-19T16:25:57.603Z,99702.75
2023-05-19T16:28:26.368Z,99711.13
2023-05-19T16:30:58.568Z,99698.59
2023-05-19T16:33:27.436Z,99695.78
2023-05-19T16:35:56.401Z,99697.28
2023-05-19T16:38:26.815Z,99688.72
2023-05-19T16:40:55.842Z,99688.00
2023-05-19T16:43:24.515Z,99690.69
2023-05-19T16:45:53.719Z,99682.41
2023-05-19T16:48:22.678Z,99683.25
2023-05-19T16:50:51.604Z,99680.94
2023-05-19T16:53:20.222Z,99688.09
2023-05-19T16:55:50.591Z,99689.84
2023-05-19T16:58:19.209Z,99693.91
2023-05-19T17:00:52.174Z,99684.56
2023-05-19T17:03:21.181Z,99680.53
2023-05-19T17:05:50.223Z,99683.78
2023-05-19T17:08:18.907Z,99687.28
2023-05-19T17:10:50.515Z,99673.25
2023-05-19T17:13:19.174Z,99680.69
2023-05-19T17:15:52.463Z,99674.75
2023-05-19T17:18:21.493Z,99677.56
2023-05-19T17:20:50.716Z,99676.53
2023-05-19T17:23:19.401Z,99680.47
2023-05-19T17:25:48.362Z,99687.56
2023-05-19T17:28:18.304Z,99678.28
2023-05-19T17:30:47.255Z,99669.22
2023-05-19T17:33:15.904Z,99673.13
2023-05-19T17:35:44.941Z,99675.81
2023-05-19T17:38:13.613Z,99676.63
2023-05-19T17:40:42.626Z,99679.25
2023-05-19T17:43:11.349Z,99672.38
2023-05-19T17:45:41.859Z,99675.97
2023-05-19T17:48:10.514Z,99676.31
2023-05-19T17:50:39.591Z,99683.63
2023-05-19T17:53:08.692Z,99682.09
2023-05-19T17:55:38.450Z,99689.19
2023-05-19T17:58:07.609Z,99684.03
2023-05-19T18:00:37.183Z,99675.00
2023-05-19T18:03:08.280Z,99666.75
2023-05-19T18:05:38.008Z,99669.22
2023-05-19T18:08:09.609Z,99673.84
2023-05-19T18:10:40.933Z,99667.16
2023-05-19T18:13:11.497Z,99663.97
2023-05-19T18:15:40.388Z,99660.19
2023-05-19T18:18:11.024Z,99659.44
2023-05-19T18:20:41.232Z,99661.81
2023-05-19T18:23:09.884Z,99660.56
2023-05-19T18:25:39.009Z,99661.47
2023-05-19T18:28:07.855Z,99659.72
2023-05-19T18:30:36.848Z,99659.66
2023-05-19T18:33:07.326Z,99660.16
2023-05-19T18:35:37.942Z,99664.28
2023-05-19T18:38:06.558Z,99659.38
2023-05-19T18:40:35.726Z,99660.31
2023-05-19T18:43:04.654Z,99669.31
2023-05-19T18:45:33.626Z,99676.31
2023-05-19T18:48:02.240Z,99663.66
2023-05-19T18:50:31.516Z,99665.28
2023-05-19T18:53:01.810Z,99668.31
2023-05-19T18:55:30.821Z,99667.75
2023-05-19T18:57:59.410Z,99668.19
2023-05-19T19:00:29.123Z,99667.56
2023-05-19T19:02:57.824Z,99672.03
2023-05-19T19:05:27.002Z,99673.16
2023-05-19T19:07:55.707Z,99680.97
2023-05-19T19:10:27.118Z,99683.47
2023-05-19T19:12:55.870Z,99688.09
2023-05-19T19:15:25.530Z,99688.66
2023-05-19T19:17:54.281Z,99686.13
2023-05-19T19:20:23.319Z,99691.53
2023-05-19T19:22:53.063Z,99690.75
2023-05-19T19:25:23.537Z,99698.13
2023-05-19T19:27:53.831Z,99690.53
2023-05-19T19:30:22.872Z,99703.06
2023-05-19T19:32:51.535Z,99709.19
2023-05-19T19:35:20.941Z,99706.50
2023-05-19T19:37:51.749Z,99712.75
2023-05-19T19:40:20.970Z,99712.84
2023-05-19T19:42:49.773Z,99717.94
2023-05-19T19:45:20.928Z,99704.38
2023-05-19T19:47:49.908Z,99710.09
2023-05-19T19:50:19.187Z,99715.41
2023-05-19T19:52:47.910Z,99711.03
2023-05-19T19:55:17.055Z,99719.50
2023-05-19T19:57:49.298Z,99718.94
2023-05-19T20:00:20.122Z,99730.97
2023-05-19T20:03:03.578Z,99741.91
2023-05-19T20:05:34.015Z,99739.31
2023-05-19T20:08:02.721Z,99741.44
2023-05-19T20:10:31.749Z,99748.38
2023-05-19T20:13:00.554Z,99750.94
2023-05-19T20:15:31.904Z,99755.19
2023-05-19T20:18:00.645Z,99753.44
2023-05-19T20:20:29.884Z,99754.91
2023-05-19T20:22:58.553Z,99762.44
2023-05-19T20:25:27.401Z,99760.56
2023-05-19T20:27:56.180Z,99764.16
2023-05-19T20:30:25.167Z,99764.03
2023-05-19T20:32:55.254Z,99762.94
2023-05-19T20:35:24.521Z,99755.63
2023-05-19T20:37:53.083Z,99746.91
2023-05-19T20:40:22.116Z,99735.22
2023-05-19T20:42:51.945Z,99735.56
2023-05-19T20:45:21.350Z,99733.84
2023-05-19T20:47:49.973Z,99731.97
2023-05-19T20:50:20.485Z,99729.16
2023-05-19T20:52:49.183Z,99729.03
2023-05-19T20:55:18.678Z,99724.00
2023-05-19T20:57:47.432Z,99716.75
2023-05-19T21:00:16.860Z,99716.75
2023-05-19T21:02:45.790Z,99709.91
2023-05-19T21:05:18.240Z,99714.06
2023-05-19T21:07:48.287Z,99707.59
2023-05-19T21:10:18.001Z,99701.03
2023-05-19T21:12:46.790Z,99700.31
2023-05-19T21:15:15.805Z,99698.75
2023-05-19T21:17:44.464Z,99699.75
2023-05-19T21:20:13.967Z,99705.13
2023-05-19T21:22:42.626Z,99702.31
2023-05-19T21:25:13.130Z,99697.00
2023-05-19T21:27:42.209Z,99699.59
2023-05-19T21:30:12.315Z,99706.09
2023-05-19T21:32:42.225Z,99704.47
2023-05-19T21:35:11.435Z,99712.06
2023-05-19T21:37:40.429Z,99702.63
2023-05-19T21:40:10.224Z,99702.22
2023-05-19T21:42:40.200Z,99700.81
2023-05-19T21:45:09.912Z,99693.41
2023-05-19T21:47:38.719Z,99689.72
2023-05-19T21:50:09.258Z,99687.13
2023-05-19T21:52:38.807Z,99693.00
2023-05-19T21:55:09.790Z,99687.50
2023-05-19T21:57:38.605Z,99688.25
2023-05-19T22:00:13.139Z,99687.16
2023-05-19T22:02:42.263Z,99692.28
2023-05-19T22:05:11.838Z,99689.28
2023-05-19T22:07:40.642Z,99698.59
2023-05-19T22:10:10.200Z,99696.97
2023-05-19T22:12:38.819Z,99695.47
2023-05-19T22:15:10.843Z,99699.19
2023-05-19T22:17:39.547Z,99691.56
2023-05-19T22:20:09.625Z,99686.38
2023-05-19T22:22:38.305Z,99682.00
2023-05-19T22:25:08.369Z,99665.53
2023-05-19T22:27:36.996Z,99660.75
2023-05-19T22:30:07.232Z,99650.53
2023-05-19T22:32:37.179Z,99642.56
2023-05-19T22:35:08.378Z,99651.47
2023-05-19T22:37:37.079Z,99650.88
2023-05-19T22:40:07.262Z,99643.78
2023-05-19T22:42:35.907Z,99642.69
2023-05-19T22:45:05.439Z,99639.97
2023-05-19T22:47:34.334Z,99647.03
2023-05-19T22:50:05.705Z,99639.84
2023-05-19T22:52:34.506Z,99633.81
2023-05-19T22:55:03.768Z,99645.34
2023-05-19T22:57:32.964Z,99638.53
2023-05-19T23:00:02.081Z,99632.72
2023-05-19T23:02:31.572Z,99646.50
2023-05-19T23:05:01.059Z,99640.72
2023-05-19T23:07:31.498Z,99644.16
2023-05-19T23:10:00.510Z,99643.59
2023-05-19T23:12:29.130Z,99642.63
2023-05-19T23:14:58.178Z,99641.91
2023-05-19T23:17:26.897Z,99644.72
2023-05-19T23:19:55.923Z,99631.22
2023-05-19T23:22:24.668Z,99629.47
2023-05-19T23:24:54.931Z,99627.66
2023-05-19T23:27:23.448Z,99627.38
2023-05-19T23:29:52.977Z,99625.13
2023-05-19T23:32:21.720Z,99617.22
2023-05-19T23:34:50.616Z,99617.19
2023-05-19T23:37:19.386Z,99619.25
2023-05-19T23:39:48.422Z,99622.69
2023-05-19T23:42:18.444Z,99616.38
2023-05-19T23:44:47.367Z,99616.19
2023-05-19T23:47:15.999Z,99616.69
2023-05-19T23:49:45.127Z,99615.78
2023-05-19T23:52:14.227Z,99619.94
2023-05-19T23:54:43.254Z,99626.94
2023-05-19T23:57:11.976Z,99623.56
2023-05-19T23:59:42.382Z,99624.38
